createdAt,value
2022-10-20T00:02:09.618Z,4.20
2022-10-20T00:04:36.027Z,3.57
2022-10-20T00:07:02.458Z,4.20
2022-10-20T00:09:29.128Z,3.70
2022-10-20T00:11:55.689Z,3.93
2022-10-20T00:14:22.185Z,4.33
2022-10-20T00:16:48.624Z,3.90
2022-10-20T00:19:15.069Z,3.70
2022-10-20T00:21:41.490Z,3.43
2022-10-20T00:24:08.050Z,3.90
2022-10-20T00:26:34.509Z,4.17
2022-10-20T00:29:02.952Z,3.70
2022-10-20T00:31:29.832Z,3.47
2022-10-20T00:33:56.312Z,3.23
2022-10-20T00:36:23.390Z,3.77
2022-10-20T00:38:50.939Z,4.10
2022-10-20T00:41:19.871Z,3.80
2022-10-20T00:43:53.568Z,3.20
2022-10-20T00:46:22.636Z,3.53
2022-10-20T00:48:53.203Z,3.73
2022-10-20T00:51:22.740Z,3.67
2022-10-20T00:53:50.985Z,3.43
2022-10-20T00:56:17.462Z,3.87
2022-10-20T00:58:44.025Z,3.77
2022-10-20T01:01:11.488Z,3.70
2022-10-20T01:03:47.509Z,3.97
2022-10-20T01:08:47.254Z,3.77
2022-10-20T01:11:25.905Z,3.60
2022-10-20T01:14:19.851Z,3.40
2022-10-20T01:16:59.169Z,3.53
2022-10-20T01:19:39.515Z,3.43
2022-10-20T01:22:14.321Z,3.53
2022-10-20T01:24:50.884Z,3.50
2022-10-20T01:27:37.748Z,3.60
2022-10-20T01:30:19.197Z,3.30
2022-10-20T01:32:53.575Z,3.50
2022-10-20T01:35:22.997Z,3.80
2022-10-20T01:38:20.933Z,3.63
2022-10-20T01:41:09.717Z,3.10
2022-10-20T01:43:38.682Z,3.40
2022-10-20T01:46:06.622Z,3.53
2022-10-20T01:48:35.251Z,3.67
2022-10-20T01:51:02.481Z,3.20
2022-10-20T01:53:29.019Z,3.47
2022-10-20T01:55:56.993Z,3.50
2022-10-20T01:58:48.251Z,3.27
2022-10-20T02:01:34.497Z,3.60
2022-10-20T02:04:03.153Z,2.97
2022-10-20T02:07:08.090Z,3.00
2022-10-20T02:09:46.065Z,3.57
2022-10-20T02:12:17.722Z,3.00
2022-10-20T02:14:45.456Z,3.07
2022-10-20T02:17:14.929Z,3.20
2022-10-20T02:19:43.396Z,3.23
2022-10-20T02:22:11.510Z,3.33
2022-10-20T02:24:40.214Z,3.40
2022-10-20T02:27:22.114Z,3.30
2022-10-20T02:29:58.726Z,3.00
2022-10-20T02:32:25.672Z,2.87
2022-10-20T02:34:52.100Z,3.40
2022-10-20T02:37:18.517Z,3.20
2022-10-20T02:39:45.182Z,3.10
2022-10-20T02:42:12.626Z,3.10
2022-10-20T02:44:39.068Z,3.13
2022-10-20T02:47:05.625Z,3.00
2022-10-20T02:49:32.044Z,3.00
2022-10-20T02:51:58.544Z,3.03
2022-10-20T02:54:24.946Z,2.83
2022-10-20T02:56:51.330Z,3.10
2022-10-20T02:59:17.868Z,3.13
2022-10-20T03:01:44.936Z,3.07
2022-10-20T03:04:12.446Z,3.07
2022-10-20T03:06:40.197Z,3.10
2022-10-20T03:09:06.699Z,3.47
2022-10-20T03:11:33.201Z,3.37
2022-10-20T03:13:59.702Z,3.20
2022-10-20T03:16:26.353Z,3.27
2022-10-20T03:18:53.223Z,3.30
2022-10-20T03:21:19.709Z,3.50
2022-10-20T03:23:46.212Z,3.63
2022-10-20T03:26:12.707Z,3.30
2022-10-20T03:28:39.927Z,3.37
2022-10-20T03:31:07.090Z,3.80
2022-10-20T03:33:33.843Z,3.83
2022-10-20T03:36:00.589Z,3.43
2022-10-20T03:38:27.017Z,3.93
2022-10-20T03:40:53.498Z,3.80
2022-10-20T03:43:19.977Z,3.50
2022-10-20T03:45:46.368Z,3.70
2022-10-20T03:48:12.811Z,3.80
2022-10-20T03:50:40.335Z,3.40
2022-10-20T03:53:07.620Z,3.40
2022-10-20T03:55:33.998Z,3.80
2022-10-20T03:58:00.380Z,3.90
2022-10-20T04:00:26.928Z,4.13
2022-10-20T04:02:53.704Z,4.13
2022-10-20T04:05:20.675Z,4.30
2022-10-20T04:07:47.503Z,3.40
2022-10-20T04:10:15.160Z,3.60
2022-10-20T04:12:41.539Z,3.90
2022-10-20T04:15:08.530Z,3.87
2022-10-20T04:17:34.999Z,3.40
2022-10-20T04:20:01.510Z,4.20
2022-10-20T04:22:28.057Z,4.00
2022-10-20T04:24:54.518Z,4.00
2022-10-20T04:27:21.066Z,4.50
2022-10-20T04:29:47.879Z,3.77
2022-10-20T04:32:14.321Z,4.37
2022-10-20T04:34:40.728Z,3.97
2022-10-20T04:37:07.137Z,3.90
2022-10-20T04:39:33.563Z,4.33
2022-10-20T04:42:00.810Z,4.13
2022-10-20T04:44:27.273Z,3.63
2022-10-20T04:46:56.964Z,4.47
2022-10-20T04:49:23.741Z,4.20
2022-10-20T04:51:50.169Z,4.63
2022-10-20T04:54:16.646Z,4.50
2022-10-20T04:56:43.063Z,4.23
2022-10-20T04:59:12.720Z,4.10
2022-10-20T05:01:40.687Z,3.73
2022-10-20T05:04:07.372Z,4.23
2022-10-20T05:06:33.939Z,3.63
2022-10-20T05:09:02.459Z,4.13
2022-10-20T05:11:30.898Z,4.00
2022-10-20T05:13:57.451Z,3.70
2022-10-20T05:16:24.295Z,3.63
2022-10-20T05:18:52.307Z,3.40
2022-10-20T05:21:23.943Z,3.70
2022-10-20T05:23:58.559Z,4.43
2022-10-20T05:26:26.106Z,3.80
2022-10-20T05:28:52.576Z,3.83
2022-10-20T05:31:21.948Z,3.50
2022-10-20T05:33:50.636Z,4.20
2022-10-20T05:36:21.567Z,4.10
2022-10-20T05:38:49.372Z,4.60
2022-10-20T05:41:18.147Z,4.20
2022-10-20T05:43:52.543Z,3.70
2022-10-20T05:46:19.789Z,3.77
2022-10-20T05:48:47.065Z,4.50
2022-10-20T05:51:19.151Z,4.33
2022-10-20T05:53:47.063Z,4.33
2022-10-20T05:56:15.923Z,4.00
2022-10-20T05:58:43.569Z,3.70
2022-10-20T06:01:17.268Z,4.10
2022-10-20T06:04:00.962Z,5.33
2022-10-20T06:06:30.011Z,3.93
2022-10-20T06:08:58.758Z,4.00
2022-10-20T06:11:26.113Z,4.10
2022-10-20T06:13:53.305Z,3.70
2022-10-20T06:16:22.190Z,4.20
2022-10-20T06:18:48.729Z,3.63
2022-10-20T06:21:17.977Z,3.40
2022-10-20T06:23:47.414Z,3.50
2022-10-20T06:26:19.196Z,4.13
2022-10-20T06:28:48.542Z,3.97
2022-10-20T06:31:16.126Z,3.33
2022-10-20T06:33:43.449Z,3.10
2022-10-20T06:36:10.974Z,3.47
2022-10-20T06:38:38.600Z,3.70
2022-10-20T06:41:07.123Z,4.23
2022-10-20T06:43:33.907Z,3.57
2022-10-20T06:46:05.389Z,3.33
2022-10-20T06:48:33.071Z,3.97
2022-10-20T06:51:02.736Z,4.00
2022-10-20T06:53:30.048Z,3.40
2022-10-20T06:56:07.463Z,3.40
2022-10-20T06:58:35.490Z,4.10
2022-10-20T07:01:09.882Z,4.00
2022-10-20T07:03:38.470Z,4.27
2022-10-20T07:06:06.476Z,4.10
2022-10-20T07:08:34.326Z,3.50
2022-10-20T07:11:07.556Z,3.27
2022-10-20T07:13:35.508Z,4.13
2022-10-20T07:16:02.764Z,3.43
2022-10-20T07:18:29.882Z,3.50
2022-10-20T07:21:00.743Z,4.07
2022-10-20T07:23:29.173Z,3.63
2022-10-20T07:26:06.808Z,3.33
2022-10-20T07:28:34.272Z,3.60
2022-10-20T07:31:08.807Z,3.60
2022-10-20T07:33:35.905Z,4.07
2022-10-20T07:36:02.337Z,3.43
2022-10-20T07:38:29.784Z,3.67
2022-10-20T07:41:02.382Z,3.17
2022-10-20T07:43:29.178Z,3.90
2022-10-20T07:45:55.627Z,3.80
2022-10-20T07:48:22.103Z,4.33
2022-10-20T07:50:48.704Z,3.60
2022-10-20T07:53:15.109Z,4.03
2022-10-20T07:55:41.493Z,4.23
2022-10-20T07:58:08.016Z,4.07
2022-10-20T08:00:34.591Z,4.57
2022-10-20T08:03:01.079Z,4.13
2022-10-20T08:05:29.501Z,3.93
2022-10-20T08:07:58.309Z,4.37
2022-10-20T08:10:24.992Z,4.13
2022-10-20T08:12:51.681Z,4.20
2022-10-20T08:15:20.254Z,4.03
2022-10-20T08:17:46.662Z,4.20
2022-10-20T08:20:20.441Z,4.37
2022-10-20T08:22:48.905Z,4.57
2022-10-20T08:25:15.503Z,4.27
2022-10-20T08:27:42.238Z,4.70
2022-10-20T08:30:23.475Z,4.20
2022-10-20T08:32:52.620Z,4.40
2022-10-20T08:35:20.243Z,4.70
2022-10-20T08:37:46.650Z,4.60
2022-10-20T08:40:28.161Z,5.03
2022-10-20T08:42:54.853Z,4.67
2022-10-20T08:45:24.479Z,5.60
2022-10-20T08:47:54.097Z,4.77
2022-10-20T08:50:22.047Z,4.20
2022-10-20T08:52:54.255Z,4.90
2022-10-20T08:55:32.535Z,4.30
2022-10-20T08:58:04.969Z,4.60
2022-10-20T09:00:33.153Z,5.40
2022-10-20T09:03:13.841Z,4.60
2022-10-20T09:05:42.025Z,4.60
2022-10-20T09:08:08.715Z,4.50
2022-10-20T09:10:47.989Z,5.20
2022-10-20T09:13:25.720Z,4.27
2022-10-20T09:15:56.462Z,4.77
2022-10-20T09:18:23.126Z,4.00
2022-10-20T09:20:56.296Z,4.63
2022-10-20T09:23:42.940Z,4.63
2022-10-20T09:26:30.379Z,4.63
2022-10-20T09:29:16.476Z,4.70
2022-10-20T09:31:45.067Z,4.17
2022-10-20T09:34:32.608Z,5.07
2022-10-20T09:37:08.147Z,4.50
2022-10-20T09:39:49.198Z,4.80
2022-10-20T09:42:24.857Z,4.70
2022-10-20T09:45:01.108Z,4.90
2022-10-20T09:47:28.597Z,5.00
2022-10-20T09:50:01.049Z,4.57
2022-10-20T09:52:31.828Z,4.93
2022-10-20T09:55:26.790Z,5.07
2022-10-20T09:57:54.350Z,5.20
2022-10-20T10:00:37.228Z,4.90
2022-10-20T10:03:21.560Z,4.57
2022-10-20T10:05:59.385Z,4.73
2022-10-20T10:08:28.716Z,4.93
2022-10-20T10:11:01.586Z,5.00
2022-10-20T10:13:30.757Z,5.37
2022-10-20T10:16:02.938Z,5.20
2022-10-20T10:18:29.724Z,5.03
2022-10-20T10:21:02.576Z,5.30
2022-10-20T10:23:31.132Z,5.50
2022-10-20T10:26:00.683Z,5.40
2022-10-20T10:28:34.030Z,5.13
2022-10-20T10:31:22.377Z,5.67
2022-10-20T10:33:52.148Z,6.27
2022-10-20T10:36:26.769Z,5.57
2022-10-20T10:38:53.912Z,5.40
2022-10-20T10:41:44.973Z,6.17
2022-10-20T10:44:27.306Z,5.13
2022-10-20T10:47:14.805Z,5.73
2022-10-20T10:49:59.457Z,5.60
2022-10-20T10:52:51.025Z,5.77
2022-10-20T10:55:47.396Z,6.10
2022-10-20T10:58:25.445Z,5.07
2022-10-20T11:01:17.682Z,5.23
2022-10-20T11:04:06.209Z,5.27
2022-10-20T11:06:48.852Z,5.73
2022-10-20T11:09:38.518Z,5.70
2022-10-20T11:12:04.865Z,5.33
2022-10-20T11:14:54.525Z,5.10
2022-10-20T11:17:33.006Z,6.10
2022-10-20T11:20:19.788Z,5.40
2022-10-20T11:22:55.559Z,5.57
2022-10-20T11:25:33.560Z,5.53
2022-10-20T11:28:00.658Z,5.30
2022-10-20T11:30:27.493Z,5.43
2022-10-20T11:33:20.207Z,4.87
2022-10-20T11:36:03.995Z,5.77
2022-10-20T11:38:44.172Z,5.07
2022-10-20T11:41:35.311Z,5.23
2022-10-20T11:44:28.163Z,5.33
2022-10-20T11:46:58.638Z,5.50
2022-10-20T11:49:25.084Z,5.30
2022-10-20T11:52:14.111Z,5.17
2022-10-20T11:55:06.930Z,4.80
2022-10-20T11:57:39.439Z,5.50
2022-10-20T12:00:24.604Z,5.47
2022-10-20T12:03:09.456Z,5.10
2022-10-20T12:06:00.894Z,4.97
2022-10-20T12:08:37.356Z,5.03
2022-10-20T12:11:12.936Z,6.43
2022-10-20T12:14:07.201Z,5.43
2022-10-20T12:16:55.915Z,5.83
2022-10-20T12:19:25.639Z,5.30
2022-10-20T12:22:08.371Z,5.40
2022-10-20T12:24:34.807Z,4.97
2022-10-20T12:27:02.970Z,5.97
2022-10-20T12:29:32.180Z,5.00
2022-10-20T12:32:37.503Z,5.20
2022-10-20T12:35:24.034Z,4.87
2022-10-20T12:38:02.308Z,4.87
2022-10-20T12:40:55.089Z,4.50
2022-10-20T12:43:29.210Z,5.30
2022-10-20T12:46:05.148Z,4.50
2022-10-20T12:48:34.013Z,4.97
2022-10-20T12:51:07.985Z,4.10
2022-10-20T12:53:34.627Z,4.80
2022-10-20T12:56:07.009Z,4.90
2022-10-20T12:59:10.076Z,5.20
2022-10-20T13:02:21.835Z,5.20
2022-10-20T13:04:58.092Z,4.57
2022-10-20T13:07:46.560Z,5.17
2022-10-20T13:10:31.284Z,4.47
2022-10-20T13:13:03.664Z,4.70
2022-10-20T13:15:32.913Z,4.77
2022-10-20T13:18:02.457Z,4.17
2022-10-20T13:21:01.716Z,4.73
2022-10-20T13:23:38.738Z,4.93
2022-10-20T13:26:25.406Z,3.90
2022-10-20T13:28:53.652Z,4.00
2022-10-20T13:31:44.069Z,4.17
2022-10-20T13:34:18.698Z,4.30
2022-10-20T13:37:21.644Z,4.33
2022-10-20T13:40:27.640Z,4.40
2022-10-20T13:43:32.699Z,4.23
2022-10-20T13:46:08.020Z,4.40
2022-10-20T13:48:45.024Z,4.40
2022-10-20T13:51:25.755Z,4.10
2022-10-20T13:53:55.178Z,4.00
2022-10-20T13:56:35.458Z,4.40
2022-10-20T13:59:05.937Z,4.83
2022-10-20T14:01:35.672Z,4.30
2022-10-20T14:04:02.346Z,4.20
2022-10-20T14:06:36.321Z,4.40
2022-10-20T14:09:11.859Z,4.57
2022-10-20T14:11:39.040Z,4.00
2022-10-20T14:14:07.770Z,4.17
2022-10-20T14:16:34.184Z,4.10
2022-10-20T14:19:12.756Z,3.83
2022-10-20T14:21:49.309Z,4.00
2022-10-20T14:24:22.617Z,3.83
2022-10-20T14:26:49.799Z,3.80
2022-10-20T14:29:17.409Z,4.73
2022-10-20T14:31:45.918Z,4.67
2022-10-20T14:34:29.431Z,5.00
2022-10-20T14:36:56.873Z,4.67
2022-10-20T14:39:38.400Z,4.90
2022-10-20T14:42:19.638Z,5.33
2022-10-20T14:44:46.187Z,4.63
2022-10-20T14:47:13.963Z,4.77
2022-10-20T14:49:42.162Z,4.37
2022-10-20T14:52:20.382Z,4.90
2022-10-20T14:54:49.616Z,5.10
2022-10-20T14:57:16.315Z,5.50
2022-10-20T15:00:02.468Z,5.00
2022-10-20T15:02:39.974Z,4.93
2022-10-20T15:05:22.539Z,5.03
2022-10-20T15:07:49.267Z,5.00
2022-10-20T15:10:16.803Z,4.40
2022-10-20T15:12:46.261Z,4.93
2022-10-20T15:15:12.781Z,4.53
2022-10-20T15:17:43.620Z,5.30
2022-10-20T15:20:32.831Z,5.70
2022-10-20T15:23:07.639Z,5.43
2022-10-20T15:25:47.505Z,6.30
2022-10-20T15:28:23.532Z,6.07
2022-10-20T15:30:50.197Z,6.10
2022-10-20T15:33:16.629Z,5.50
2022-10-20T15:35:47.013Z,5.90
2022-10-20T15:38:14.386Z,5.77
2022-10-20T15:40:41.254Z,6.23
2022-10-20T15:43:11.930Z,6.73
2022-10-20T15:45:40.802Z,7.23
2022-10-20T15:48:07.229Z,6.87
2022-10-20T15:50:33.912Z,6.23
2022-10-20T15:53:00.342Z,6.33
2022-10-20T15:55:32.390Z,6.33
2022-10-20T15:57:59.025Z,6.63
2022-10-20T16:00:27.403Z,6.90
2022-10-20T16:02:55.566Z,6.23
2022-10-20T16:05:27.094Z,6.60
2022-10-20T16:07:54.446Z,6.50
2022-10-20T16:10:28.514Z,7.10
2022-10-20T16:12:55.328Z,6.53
2022-10-20T16:15:22.444Z,5.93
2022-10-20T16:20:21.850Z,6.60
2022-10-20T16:22:48.342Z,6.63
2022-10-20T16:25:14.741Z,6.57
2022-10-20T16:27:41.211Z,6.80
2022-10-20T16:30:08.575Z,6.60
2022-10-20T16:32:35.708Z,7.03
2022-10-20T16:35:04.264Z,7.20
2022-10-20T16:37:32.159Z,7.60
2022-10-20T16:39:59.528Z,7.73
2022-10-20T16:42:27.422Z,8.10
2022-10-20T16:44:53.866Z,7.77
2022-10-20T16:47:20.340Z,8.13
2022-10-20T16:49:46.755Z,8.50
2022-10-20T16:52:13.299Z,8.43
2022-10-20T16:57:12.720Z,7.67
2022-10-20T16:59:39.480Z,8.43
2022-10-20T17:02:06.227Z,7.97
2022-10-20T17:04:32.629Z,8.40
2022-10-20T17:06:59.149Z,7.87
2022-10-20T17:09:25.714Z,8.63
2022-10-20T17:11:52.220Z,9.17
2022-10-20T17:14:18.700Z,11.23
2022-10-20T17:16:47.211Z,12.47
2022-10-20T17:19:14.061Z,12.00
2022-10-20T17:21:40.541Z,8.73
2022-10-20T17:24:11.203Z,9.10
2022-10-20T17:26:38.353Z,7.80
2022-10-20T17:29:05.046Z,7.90
2022-10-20T17:31:31.708Z,7.97
2022-10-20T17:33:58.900Z,8.73
2022-10-20T17:36:26.477Z,9.27
2022-10-20T17:38:56.109Z,8.67
2022-10-20T17:41:22.838Z,8.70
2022-10-20T17:43:49.307Z,8.47
2022-10-20T17:46:17.743Z,9.07
2022-10-20T17:48:44.794Z,8.70
2022-10-20T17:51:20.531Z,8.87
2022-10-20T17:53:48.355Z,8.93
2022-10-20T17:56:16.157Z,9.90
2022-10-20T17:58:43.868Z,9.63
2022-10-20T18:01:17.030Z,9.23
2022-10-20T18:03:44.336Z,9.80
2022-10-20T18:06:19.328Z,9.70
2022-10-20T18:08:46.775Z,11.33
2022-10-20T18:11:18.978Z,15.80
2022-10-20T18:13:45.879Z,11.53
2022-10-20T18:16:14.306Z,9.47
2022-10-20T18:18:40.868Z,9.93
2022-10-20T18:21:12.480Z,10.27
2022-10-20T18:23:41.291Z,10.07
2022-10-20T18:26:19.071Z,9.97
2022-10-20T18:28:48.280Z,10.37
2022-10-20T18:31:23.296Z,11.23
2022-10-20T18:33:51.174Z,10.77
2022-10-20T18:36:18.760Z,10.57
2022-10-20T18:38:46.562Z,11.20
2022-10-20T18:41:24.799Z,10.27
2022-10-20T18:43:58.012Z,10.40
2022-10-20T18:46:26.524Z,10.33
2022-10-20T18:48:53.280Z,10.77
2022-10-20T18:51:19.713Z,11.07
2022-10-20T18:53:46.750Z,11.27
2022-10-20T18:56:14.351Z,10.93
2022-10-20T18:58:42.956Z,11.30
2022-10-20T19:01:12.572Z,10.80
2022-10-20T19:03:40.243Z,11.33
2022-10-20T19:06:27.752Z,14.57
2022-10-20T19:08:56.756Z,14.37
2022-10-20T19:11:25.463Z,12.07
2022-10-20T19:13:52.385Z,11.73
2022-10-20T19:16:20.937Z,10.83
2022-10-20T19:18:49.673Z,11.00
2022-10-20T19:21:17.096Z,12.80
2022-10-20T19:23:46.529Z,11.37
2022-10-20T19:26:28.269Z,12.50
2022-10-20T19:28:58.881Z,11.83
2022-10-20T19:31:50.467Z,11.60
2022-10-20T19:34:20.716Z,11.73
2022-10-20T19:36:47.310Z,11.83
2022-10-20T19:39:16.593Z,10.40
2022-10-20T19:41:43.180Z,10.87
2022-10-20T19:44:15.227Z,10.87
2022-10-20T19:46:42.992Z,12.17
2022-10-20T19:49:09.512Z,10.97
2022-10-20T19:51:36.105Z,12.60
2022-10-20T19:54:02.667Z,11.07
2022-10-20T19:56:29.135Z,12.40
2022-10-20T19:58:55.611Z,11.40
2022-10-20T20:01:22.099Z,11.27
2022-10-20T20:03:48.699Z,12.03
2022-10-20T20:06:18.791Z,11.93
2022-10-20T20:08:47.156Z,11.90
2022-10-20T20:11:23.374Z,12.67
2022-10-20T20:13:54.252Z,12.47
2022-10-20T20:16:21.490Z,11.70
2022-10-20T20:18:48.255Z,12.03
2022-10-20T20:21:15.074Z,13.53
2022-10-20T20:23:58.241Z,12.60
2022-10-20T20:26:27.379Z,13.63
2022-10-20T20:28:54.429Z,13.83
2022-10-20T20:31:21.744Z,13.67
2022-10-20T20:33:48.471Z,13.67
2022-10-20T20:36:14.873Z,14.67
2022-10-20T20:38:41.793Z,14.97
2022-10-20T20:41:12.243Z,14.73
2022-10-20T20:43:39.019Z,15.53
2022-10-20T20:46:10.700Z,15.77
2022-10-20T20:48:37.696Z,15.97
2022-10-20T20:51:04.760Z,15.40
2022-10-20T20:53:31.229Z,14.57
2022-10-20T20:56:00.270Z,16.03
2022-10-20T20:58:28.342Z,16.43
2022-10-20T21:01:08.702Z,15.07
2022-10-20T21:03:35.633Z,15.17
2022-10-20T21:06:10.023Z,16.10
2022-10-20T21:08:38.738Z,17.57
2022-10-20T21:11:13.255Z,15.20
2022-10-20T21:13:41.963Z,15.83
2022-10-20T21:16:13.968Z,15.50
2022-10-20T21:18:41.889Z,16.43
2022-10-20T21:23:43.714Z,17.83
2022-10-20T21:26:11.861Z,18.53
2022-10-20T21:28:38.677Z,17.20
2022-10-20T21:31:06.626Z,18.17
2022-10-20T21:33:33.856Z,16.93
2022-10-20T21:36:01.831Z,18.17
2022-10-20T21:38:32.445Z,18.73
2022-10-20T21:41:07.167Z,18.63
2022-10-20T21:43:35.233Z,18.60
2022-10-20T21:46:18.989Z,17.60
2022-10-20T21:48:46.799Z,18.57
2022-10-20T21:51:15.204Z,20.10
2022-10-20T21:53:41.968Z,19.40
2022-10-20T21:56:08.582Z,19.63
2022-10-20T21:58:35.942Z,19.60
2022-10-20T22:01:28.864Z,19.53
2022-10-20T22:03:55.635Z,17.67
2022-10-20T22:06:24.590Z,19.87
2022-10-20T22:08:53.834Z,20.00
2022-10-20T22:11:32.389Z,22.43
2022-10-20T22:13:59.052Z,20.53
2022-10-20T22:16:31.874Z,21.60
2022-10-20T22:19:03.034Z,19.73
2022-10-20T22:21:29.542Z,21.40
2022-10-20T22:23:57.100Z,20.07
2022-10-20T22:26:26.039Z,21.27
2022-10-20T22:28:52.598Z,20.97
2022-10-20T22:31:19.144Z,21.80
2022-10-20T22:33:45.613Z,19.80
2022-10-20T22:36:12.230Z,22.60
2022-10-20T22:38:38.666Z,22.83
2022-10-20T22:41:05.200Z,22.10
2022-10-20T22:43:31.774Z,22.13
2022-10-20T22:45:58.382Z,21.37
2022-10-20T22:48:25.060Z,22.93
2022-10-20T22:50:51.721Z,21.73
2022-10-20T22:53:18.314Z,23.40
2022-10-20T22:55:44.794Z,21.93
2022-10-20T22:58:11.419Z,22.50
2022-10-20T23:00:41.978Z,21.87
2022-10-20T23:03:08.476Z,21.40
2022-10-20T23:05:35.024Z,20.67
2022-10-20T23:08:01.537Z,20.03
2022-10-20T23:10:28.438Z,22.43
2022-10-20T23:12:54.834Z,23.10
2022-10-20T23:15:21.257Z,22.47
2022-10-20T23:17:47.712Z,22.87
2022-10-20T23:20:14.415Z,23.30
2022-10-20T23:22:40.866Z,22.53
2022-10-20T23:25:08.714Z,22.90
2022-10-20T23:27:35.984Z,22.07
2022-10-20T23:30:02.580Z,22.57
2022-10-20T23:32:29.005Z,22.97
2022-10-20T23:34:55.457Z,21.97
2022-10-20T23:37:23.560Z,22.27
2022-10-20T23:39:49.955Z,22.53
2022-10-20T23:42:17.525Z,22.40
2022-10-20T23:44:43.956Z,21.33
2022-10-20T23:47:10.440Z,22.63
2022-10-20T23:49:36.824Z,21.60
2022-10-20T23:52:03.270Z,22.20
2022-10-20T23:54:29.689Z,21.87
2022-10-20T23:56:56.158Z,22.37
2022-10-20T23:59:22.540Z,21.93
